Time;durP1;ratioP1;P1;durP2;ratioP2;P2;SDS_P1;SDS_P2;PMS_P1;PMS_P2;Temp;Humidity;BMP_temperature;BMP_pressure;BME280_temperature;BME280_humidity;BME280_pressure;Samples;Min_cycle;Max_cycle;Signal;HPM_P1;HPM_P2
2021/12/06 00:01:31;;;;;;;43.20;18.90;;;;;;;2.51;92.10;100410.88;5009714;28;20207;-77
2021/12/06 00:04:03;;;;;;;42.10;17.27;;;;;;;2.50;92.10;100411.81;5011432;28;20203;-77
2021/12/06 00:06:33;;;;;;;41.63;17.87;;;;;;;2.53;92.09;100410.84;5010401;28;20205;-77
2021/12/06 00:09:00;;;;;;;40.40;16.93;;;;;;;2.52;91.92;100409.13;5009272;28;20219;-77
2021/12/06 00:11:26;;;;;;;48.20;18.43;;;;;;;2.53;91.54;100410.84;5012717;28;20213;-78
2021/12/06 00:13:53;;;;;;;45.37;19.43;;;;;;;2.51;91.74;100408.25;5010850;28;20215;-75
2021/12/06 00:16:23;;;;;;;41.20;18.53;;;;;;;2.53;91.17;100418.72;5010509;28;20669;-79
2021/12/06 00:18:51;;;;;;;46.93;18.10;;;;;;;2.53;92.21;100418.72;5011238;28;20234;-78
2021/12/06 00:21:18;;;;;;;44.73;17.73;;;;;;;2.50;91.63;100424.97;5009859;28;20210;-78
2021/12/06 00:23:45;;;;;;;41.57;15.93;;;;;;;2.52;91.73;100425.75;5010141;28;20207;-76
2021/12/06 00:26:11;;;;;;;39.07;17.17;;;;;;;2.50;91.55;100422.34;5014017;28;20302;-77
2021/12/06 00:28:40;;;;;;;45.70;17.87;;;;;;;2.52;91.30;100438.03;5009709;28;20300;-77
2021/12/06 00:31:06;;;;;;;39.87;16.97;;;;;;;2.50;91.32;100426.72;5011854;28;20234;-76
2021/12/06 00:33:34;;;;;;;34.13;16.50;;;;;;;2.48;91.86;100434.66;5010296;28;20213;-78
2021/12/06 00:36:04;;;;;;;38.97;16.40;;;;;;;2.48;91.23;100444.31;5010298;28;20206;-76
2021/12/06 00:38:31;;;;;;;38.80;15.87;;;;;;;2.48;91.50;100446.94;5009834;28;20710;-77
2021/12/06 00:40:58;;;;;;;41.70;18.20;;;;;;;2.46;91.47;100441.75;5014065;28;20206;-78
2021/12/06 00:43:25;;;;;;;41.27;18.47;;;;;;;2.46;91.66;100446.13;5014140;28;20214;-78
2021/12/06 00:45:52;;;;;;;44.47;17.33;;;;;;;2.46;91.87;100451.41;5008970;28;20279;-78
2021/12/06 00:48:18;;;;;;;37.30;18.17;;;;;;;2.47;91.72;100451.34;5014679;28;20249;-77
2021/12/06 00:50:46;;;;;;;42.80;18.50;;;;;;;2.45;91.80;100461.06;5013998;28;20216;-77
2021/12/06 00:53:13;;;;;;;47.50;20.00;;;;;;;2.46;91.86;100467.16;5014938;28;20207;-77
2021/12/06 00:55:40;;;;;;;43.53;18.07;;;;;;;2.46;91.38;100470.66;5015468;28;20221;-78
2021/12/06 00:58:07;;;;;;;49.80;19.20;;;;;;;2.45;91.79;100471.56;5010929;28;20238;-77
2021/12/06 01:00:39;;;;;;;41.53;18.50;;;;;;;2.45;91.88;100476.81;5002989;28;20286;-77
2021/12/06 01:03:09;;;;;;;51.43;19.60;;;;;;;2.45;91.35;100474.19;5012385;28;20207;-77
2021/12/06 01:05:36;;;;;;;44.20;18.73;;;;;;;2.44;91.56;100473.34;5004182;28;20207;-77
2021/12/06 01:08:05;;;;;;;40.83;17.33;;;;;;;2.43;92.13;100478.63;5016447;28;20257;-77
2021/12/06 01:10:33;;;;;;;47.37;18.37;;;;;;;2.44;91.70;100488.25;5022242;28;20213;-79
2021/12/06 01:13:00;;;;;;;39.20;17.20;;;;;;;2.42;92.11;100490.91;5016460;28;20210;-80
2021/12/06 01:15:28;;;;;;;39.37;16.60;;;;;;;2.43;91.98;100510.19;5016208;28;20199;-77
2021/12/06 01:17:57;;;;;;;34.67;16.97;;;;;;;2.42;91.57;100500.56;5020248;28;20230;-77
2021/12/06 01:20:28;;;;;;;36.10;16.37;;;;;;;2.41;91.62;100504.97;5021783;28;20301;-78
2021/12/06 01:22:59;;;;;;;37.17;17.67;;;;;;;2.40;91.79;100503.25;5014155;28;20209;-77
2021/12/06 01:25:33;;;;;;;43.67;16.97;;;;;;;2.40;92.33;100502.38;5006684;28;20210;-78
2021/12/06 01:28:31;;;;;;;35.10;16.23;;;;;;;2.42;92.17;100511.09;5021269;28;20242;-78
2021/12/06 01:31:05;;;;;;;38.87;17.17;;;;;;;2.42;91.85;100511.09;5009708;28;20201;-78
2021/12/06 01:39:15;;;;;;;44.50;17.40;;;;;;;2.43;91.88;100503.16;5018768;28;20242;-78
2021/12/06 01:41:51;;;;;;;45.40;18.20;;;;;;;2.44;91.38;100512.75;5021845;28;20242;-78
2021/12/06 01:44:20;;;;;;;46.27;19.10;;;;;;;2.43;92.34;100512.81;5014962;28;20211;-78
2021/12/06 01:46:49;;;;;;;40.63;18.50;;;;;;;2.41;91.94;100510.22;5012345;28;20679;-78
2021/12/06 01:49:17;;;;;;;51.20;19.90;;;;;;;2.42;91.51;100513.72;5018089;28;20219;-78
2021/12/06 01:51:46;;;;;;;48.30;19.53;;;;;;;2.40;91.87;100513.75;5001140;28;20804;-77
2021/12/06 01:54:14;;;;;;;49.53;18.47;;;;;;;2.38;91.88;100518.19;5013280;28;20222;-77
2021/12/06 01:56:42;;;;;;;50.77;19.07;;;;;;;2.39;91.78;100511.19;5003797;28;20215;-78
2021/12/06 01:59:10;;;;;;;44.97;19.03;;;;;;;2.38;92.15;100514.72;5011362;28;20237;-78
2021/12/06 02:01:37;;;;;;;47.20;18.27;;;;;;;2.37;91.87;100518.25;5007020;28;20203;-79
2021/12/06 02:04:05;;;;;;;49.33;19.67;;;;;;;2.34;91.61;100523.59;5008655;28;20702;-78
2021/12/06 02:06:32;;;;;;;44.93;18.23;;;;;;;2.34;91.88;100523.59;5002153;28;20211;-77
2021/12/06 02:08:59;;;;;;;47.07;18.00;;;;;;;2.31;91.55;100516.69;5014644;28;20229;-77
2021/12/06 02:11:28;;;;;;;47.80;19.57;;;;;;;2.28;91.10;100518.56;5006534;28;20203;-76
2021/12/06 02:14:02;;;;;;;65.07;21.77;;;;;;;2.27;91.44;100520.31;5012608;28;20234;-77
2021/12/06 02:16:38;;;;;;;71.83;23.63;;;;;;;2.26;91.52;100525.63;5017936;28;20217;-78
2021/12/06 02:19:06;;;;;;;83.47;27.17;;;;;;;2.25;91.84;100531.78;5003694;28;20297;-78
2021/12/06 02:21:37;;;;;;;89.17;27.77;;;;;;;2.22;91.75;100534.50;5011659;28;20226;-78
2021/12/06 02:24:08;;;;;;;71.73;26.67;;;;;;;2.22;91.26;100545.88;5019955;28;20199;-78
2021/12/06 02:26:35;;;;;;;75.23;25.47;;;;;;;2.19;91.56;100543.34;5016332;28;20235;-78
2021/12/06 02:29:01;;;;;;;72.23;24.30;;;;;;;2.19;91.22;100550.34;5008459;28;20234;-78
2021/12/06 02:31:28;;;;;;;81.27;26.73;;;;;;;2.17;91.30;100552.16;5012248;28;20207;-77
2021/12/06 02:33:56;;;;;;;75.63;25.23;;;;;;;2.16;91.41;100547.81;5006179;28;20204;-78
2021/12/06 02:36:23;;;;;;;74.23;25.77;;;;;;;2.12;91.01;100552.31;5003627;28;20303;-77
2021/12/06 02:38:51;;;;;;;70.00;25.77;;;;;;;2.08;91.77;100554.19;5015147;28;20238;-78
2021/12/06 02:41:18;;;;;;;74.10;24.73;;;;;;;2.06;91.71;100550.75;5016827;28;20211;-77
2021/12/06 02:43:45;;;;;;;79.40;26.27;;;;;;;2.03;91.21;100555.22;5016782;28;20207;-76
2021/12/06 02:46:12;;;;;;;61.53;22.80;;;;;;;2.00;91.41;100547.41;5019076;28;20215;-77
2021/12/06 02:48:39;;;;;;;69.57;23.80;;;;;;;1.99;91.67;100561.47;5018874;28;20233;-77
2021/12/06 02:51:08;;;;;;;68.10;24.10;;;;;;;1.96;91.23;100559.81;5015601;28;20199;-77
2021/12/06 02:53:36;;;;;;;64.17;22.57;;;;;;;1.94;91.71;100558.13;5013403;28;20298;-76
2021/12/06 02:56:17;;;;;;;64.17;22.10;;;;;;;1.92;91.44;100567.81;5018981;28;20203;-77
2021/12/06 02:58:56;;;;;;;64.43;23.30;;;;;;;1.88;92.19;100556.53;5003547;28;20318;-77
2021/12/06 03:01:27;;;;;;;73.53;26.33;;;;;;;1.87;92.01;100562.69;5013644;28;20286;-77
2021/12/06 03:03:53;;;;;;;65.80;22.43;;;;;;;1.87;92.20;100561.84;5013897;28;20210;-77
2021/12/06 03:06:21;;;;;;;76.47;25.73;;;;;;;1.83;91.58;100574.19;5014913;28;20207;-77
2021/12/06 03:08:52;;;;;;;54.70;22.13;;;;;;;1.83;92.09;100570.69;5016011;28;20220;-77
2021/12/06 03:11:23;;;;;;;54.90;21.90;;;;;;;1.81;91.36;100568.09;5010446;28;20207;-76
2021/12/06 03:13:50;;;;;;;59.10;22.57;;;;;;;1.80;92.13;100573.41;5010769;28;20302;-76
2021/12/06 03:16:17;;;;;;;52.40;22.13;;;;;;;1.79;92.14;100576.97;5012286;28;20206;-76
2021/12/06 03:18:45;;;;;;;59.23;24.40;;;;;;;1.77;91.95;100581.41;5015977;28;20238;-75
2021/12/06 03:21:11;;;;;;;64.47;24.13;;;;;;;1.78;92.29;100588.38;5018151;28;20225;-76
2021/12/06 03:23:38;;;;;;;61.63;25.00;;;;;;;1.78;91.51;100591.84;5017995;28;20218;-77
2021/12/06 03:26:05;;;;;;;66.47;26.40;;;;;;;1.78;91.75;100596.25;5018301;28;20230;-78
2021/12/06 03:28:38;;;;;;;65.10;24.67;;;;;;;1.77;92.08;100589.28;5004726;28;20235;-79
2021/12/06 03:31:06;;;;;;;65.97;26.13;;;;;;;1.78;91.75;100593.63;5015529;28;20270;-79
2021/12/06 03:33:34;;;;;;;66.03;26.33;;;;;;;1.77;91.73;100594.53;5016933;28;20281;-78
2021/12/06 03:36:00;;;;;;;67.90;24.37;;;;;;;1.78;91.80;100594.47;5017970;28;20207;-79
2021/12/06 03:38:27;;;;;;;63.77;25.87;;;;;;;1.77;92.30;100586.66;5016656;28;20235;-78
2021/12/06 03:40:54;;;;;;;62.50;25.37;;;;;;;1.78;92.15;100589.22;5011169;28;20212;-78
2021/12/06 03:43:20;;;;;;;56.77;24.20;;;;;;;1.79;91.96;100576.97;5014538;28;20199;-78
2021/12/06 03:45:48;;;;;;;63.97;24.57;;;;;;;1.79;92.56;100576.97;5016853;28;20283;-78
2021/12/06 03:48:15;;;;;;;59.83;24.83;;;;;;;1.80;92.19;100587.38;5010025;28;20234;-78
2021/12/06 03:50:42;;;;;;;57.80;23.47;;;;;;;1.81;91.66;100586.50;5000843;28;20701;-76
2021/12/06 03:53:08;;;;;;;62.93;25.27;;;;;;;1.82;92.50;100582.09;5002606;28;20739;-78
2021/12/06 03:55:35;;;;;;;64.17;25.47;;;;;;;1.82;91.95;100598.72;5014066;28;20213;-76
2021/12/06 03:58:01;;;;;;;64.33;25.30;;;;;;;1.84;91.70;100591.66;4995816;28;20254;-78
2021/12/06 04:00:28;;;;;;;66.70;25.10;;;;;;;1.85;92.17;100601.25;5016672;28;20217;-79
2021/12/06 04:02:56;;;;;;;55.77;23.57;;;;;;;1.87;92.36;100604.72;4995854;28;20235;-78
2021/12/06 04:05:24;;;;;;;58.80;24.60;;;;;;;1.87;91.85;100612.59;5008315;28;20210;-77
2021/12/06 04:07:51;;;;;;;60.73;25.43;;;;;;;1.87;91.69;100612.59;5000958;28;20230;-78
2021/12/06 04:10:18;;;;;;;58.93;24.70;;;;;;;1.86;92.02;100616.13;5012510;28;20229;-78
2021/12/06 04:12:45;;;;;;;58.80;24.17;;;;;;;1.88;91.84;100623.94;5006403;28;20207;-78
2021/12/06 04:15:13;;;;;;;53.10;23.93;;;;;;;1.88;91.94;100622.19;5009956;28;20214;-78
2021/12/06 04:17:42;;;;;;;54.63;23.90;;;;;;;1.88;91.55;100622.19;5007362;28;20301;-77
2021/12/06 04:20:12;;;;;;;53.33;23.63;;;;;;;1.88;91.85;100627.44;5003205;28;20233;-77
2021/12/06 04:22:40;;;;;;;54.03;22.40;;;;;;;1.87;91.57;100630.09;5015467;28;20209;-77
2021/12/06 04:25:09;;;;;;;46.27;21.10;;;;;;;1.87;91.85;100635.34;5013690;28;20293;-77
2021/12/06 04:27:37;;;;;;;47.50;21.83;;;;;;;1.85;91.80;100624.91;5013779;28;20253;-78
2021/12/06 04:30:07;;;;;;;48.07;21.40;;;;;;;1.86;91.79;100624.00;5055048;22;20229;-73
2021/12/06 04:32:34;;;;;;;52.10;22.00;;;;;;;1.85;91.35;100624.91;5036151;28;20667;-73
2021/12/06 04:35:00;;;;;;;42.03;19.57;;;;;;;1.85;90.94;100631.91;5049290;28;20616;-72
2021/12/06 04:37:28;;;;;;;53.17;23.17;;;;;;;1.84;90.66;100635.44;5030119;28;20627;-73
2021/12/06 04:39:55;;;;;;;49.67;22.27;;;;;;;1.83;91.00;100641.59;5036310;28;20233;-73
2021/12/06 04:42:22;;;;;;;47.73;21.57;;;;;;;1.84;91.42;100630.19;5031731;28;20205;-72
2021/12/06 04:44:49;;;;;;;49.90;23.07;;;;;;;1.85;91.05;100638.03;5041916;28;20206;-73
2021/12/06 04:47:16;;;;;;;47.80;22.30;;;;;;;1.86;90.94;100642.38;5042286;28;20206;-73
2021/12/06 04:49:42;;;;;;;48.33;21.00;;;;;;;1.87;91.09;100641.47;5043916;28;20221;-73
2021/12/06 04:52:12;;;;;;;50.73;20.40;;;;;;;1.88;90.84;100648.44;5034014;28;20608;-71
2021/12/06 04:54:45;;;;;;;46.63;20.73;;;;;;;1.90;91.27;100648.41;5040540;28;20213;-73
2021/12/06 04:57:15;;;;;;;49.40;21.37;;;;;;;1.92;91.08;100649.22;5034880;28;20213;-72
2021/12/06 04:59:45;;;;;;;46.93;21.67;;;;;;;1.91;90.49;100647.50;5044907;28;20243;-73
2021/12/06 05:02:17;;;;;;;48.50;21.53;;;;;;;1.91;90.35;100653.63;5044060;28;20224;-73
2021/12/06 05:04:49;;;;;;;51.60;23.10;;;;;;;1.92;90.79;100652.72;5044022;28;20232;-72
2021/12/06 05:07:22;;;;;;;49.00;21.00;;;;;;;1.92;91.17;100660.59;5045135;28;20213;-73
2021/12/06 05:09:50;;;;;;;53.63;22.27;;;;;;;1.94;90.59;100663.19;5042110;28;20225;-72
2021/12/06 05:12:19;;;;;;;53.80;22.23;;;;;;;1.94;90.60;100661.41;5039942;28;20210;-73
2021/12/06 05:14:46;;;;;;;59.03;22.20;;;;;;;1.92;90.76;100665.84;5040874;28;20212;-73
2021/12/06 05:17:13;;;;;;;51.80;22.27;;;;;;;1.94;90.78;100674.56;5037129;28;20686;-72
2021/12/06 05:19:40;;;;;;;57.13;22.60;;;;;;;1.95;90.58;100680.66;5034831;28;20233;-72
2021/12/06 05:22:07;;;;;;;56.50;23.70;;;;;;;1.95;90.47;100680.66;5034357;28;20208;-73
2021/12/06 05:24:34;;;;;;;52.80;24.20;;;;;;;1.94;90.15;100679.81;5031654;28;20216;-73
2021/12/06 05:27:04;;;;;;;60.37;22.63;;;;;;;1.94;90.78;100684.19;5036797;28;20694;-72
2021/12/06 05:29:31;;;;;;;60.40;23.47;;;;;;;1.95;89.90;100684.16;5034441;28;20264;-71
2021/12/06 05:31:59;;;;;;;53.53;22.13;;;;;;;1.95;90.52;100688.56;5033942;28;20206;-70
2021/12/06 05:34:32;;;;;;;53.93;21.53;;;;;;;1.93;90.17;100691.22;5034695;28;20198;-73
2021/12/06 05:37:00;;;;;;;57.90;22.40;;;;;;;1.93;90.23;100698.22;5034494;28;20213;-73
2021/12/06 05:39:30;;;;;;;60.10;22.83;;;;;;;1.92;90.31;100692.13;5037233;28;20406;-72
2021/12/06 05:41:57;;;;;;;54.17;21.53;;;;;;;1.89;90.42;100693.97;5037919;28;20216;-71
2021/12/06 05:44:25;;;;;;;59.77;22.27;;;;;;;1.88;89.80;100698.34;5036128;28;20204;-71
2021/12/06 05:46:52;;;;;;;59.60;21.53;;;;;;;1.89;89.75;100701.84;5036398;28;20204;-70
2021/12/06 05:49:18;;;;;;;56.13;21.33;;;;;;;1.87;90.37;100703.63;5036993;28;20223;-71
2021/12/06 05:51:45;;;;;;;58.73;21.53;;;;;;;1.86;90.07;100708.03;5036593;28;20210;-70
2021/12/06 05:54:11;;;;;;;57.90;22.33;;;;;;;1.86;89.63;100718.53;5032140;28;20199;-70
2021/12/06 05:56:38;;;;;;;57.00;21.30;;;;;;;1.87;89.88;100719.41;5040594;28;20202;-71
2021/12/06 05:59:04;;;;;;;54.60;21.90;;;;;;;1.86;90.27;100718.53;5040446;28;20586;-72
2021/12/06 06:01:33;;;;;;;61.47;22.30;;;;;;;1.87;89.77;100737.78;5039421;28;20206;-71
2021/12/06 06:04:01;;;;;;;55.13;21.37;;;;;;;1.88;90.34;100734.25;5038324;28;20300;-73
2021/12/06 06:06:29;;;;;;;55.83;20.57;;;;;;;1.89;90.29;100733.34;5046447;28;20627;-72
2021/12/06 06:08:55;;;;;;;64.30;21.77;;;;;;;1.90;89.55;100735.94;5043404;28;20234;-71
2021/12/06 06:11:22;;;;;;;57.40;21.10;;;;;;;1.91;90.33;100735.03;5039136;28;20213;-72
2021/12/06 06:13:48;;;;;;;59.60;22.47;;;;;;;1.92;90.36;100739.38;5043052;28;20561;-72
2021/12/06 06:16:19;;;;;;;50.80;20.83;;;;;;;1.93;89.78;100735.88;5037780;28;20691;-72
2021/12/06 06:18:48;;;;;;;59.00;21.53;;;;;;;1.94;90.05;100741.97;5041535;28;20233;-73
2021/12/06 06:21:15;;;;;;;55.27;20.93;;;;;;;1.93;89.77;100746.38;5040244;28;20198;-72
2021/12/06 06:23:41;;;;;;;55.97;19.67;;;;;;;1.94;89.78;100745.47;5045886;28;20308;-72
2021/12/06 06:26:08;;;;;;;61.27;19.50;;;;;;;1.94;90.14;100742.84;5036697;28;20810;-73
2021/12/06 06:28:35;;;;;;;55.40;20.47;;;;;;;1.93;90.15;100741.13;5035729;28;20236;-69
2021/12/06 06:31:02;;;;;;;57.17;19.93;;;;;;;1.94;90.24;100741.97;5045029;28;20205;-74
2021/12/06 06:33:28;;;;;;;48.40;22.97;;;;;;;1.97;90.17;100747.16;5035673;28;20217;-70
2021/12/06 06:35:56;;;;;;;48.93;20.33;;;;;;;1.97;89.92;100749.78;5034019;28;20570;-70
2021/12/06 06:38:23;;;;;;;51.53;21.90;;;;;;;1.98;90.03;100752.34;5039445;28;20252;-70
2021/12/06 06:40:50;;;;;;;50.77;19.70;;;;;;;1.99;90.05;100761.09;5034409;28;20268;-68
2021/12/06 06:43:17;;;;;;;40.90;18.27;;;;;;;1.98;89.80;100760.22;5037229;28;20206;-70
2021/12/06 06:45:43;;;;;;;42.70;19.37;;;;;;;1.98;90.45;100765.47;5034285;28;20585;-71
2021/12/06 06:48:10;;;;;;;37.93;18.10;;;;;;;1.97;89.90;100762.91;5031685;28;20217;-70
2021/12/06 06:50:37;;;;;;;35.93;17.13;;;;;;;1.95;89.58;100768.22;5037547;28;20675;-71
2021/12/06 06:53:06;;;;;;;35.73;16.83;;;;;;;1.94;90.05;100779.59;5033028;28;20222;-72
2021/12/06 06:55:32;;;;;;;33.70;17.27;;;;;;;1.92;89.28;100786.66;5045750;28;20228;-71
2021/12/06 06:57:59;;;;;;;32.33;16.80;;;;;;;1.87;89.31;100775.41;5034858;28;20240;-71
2021/12/06 07:00:29;;;;;;;35.87;18.67;;;;;;;1.85;89.19;100785.09;5045564;28;20221;-71
2021/12/06 07:02:56;;;;;;;34.60;17.97;;;;;;;1.84;89.00;100779.88;5050764;28;20220;-71
2021/12/06 07:05:23;;;;;;;40.00;18.47;;;;;;;1.84;89.28;100787.75;5050190;28;20206;-72
2021/12/06 07:07:50;;;;;;;38.13;19.40;;;;;;;1.84;89.43;100785.13;5033262;28;20212;-71
2021/12/06 07:10:18;;;;;;;36.83;18.67;;;;;;;1.82;88.87;100779.91;5038003;28;20229;-71
2021/12/06 07:12:47;;;;;;;37.77;19.20;;;;;;;1.80;89.27;100786.97;5040125;28;20214;-71
2021/12/06 07:15:15;;;;;;;35.30;18.47;;;;;;;1.79;89.55;100793.13;5034769;28;20309;-71
2021/12/06 07:17:43;;;;;;;33.87;18.07;;;;;;;1.78;89.35;100801.06;5031020;28;20217;-71
2021/12/06 07:20:12;;;;;;;37.27;20.23;;;;;;;1.76;88.85;100805.47;5032758;28;20238;-71
2021/12/06 07:22:39;;;;;;;33.13;19.10;;;;;;;1.76;88.59;100813.34;5044100;28;20212;-71
2021/12/06 07:25:07;;;;;;;33.87;18.87;;;;;;;1.73;88.92;100798.53;5031979;28;20214;-71
2021/12/06 07:27:35;;;;;;;34.50;19.17;;;;;;;1.74;89.21;100797.63;5031546;28;20207;-71
2021/12/06 07:30:02;;;;;;;35.77;20.07;;;;;;;1.72;88.95;100795.03;5033760;28;20233;-71
2021/12/06 07:32:29;;;;;;;35.70;20.33;;;;;;;1.72;88.82;100802.91;5040955;28;20197;-70
2021/12/06 07:34:55;;;;;;;33.70;18.33;;;;;;;1.70;88.74;100801.22;5050511;28;20202;-71
2021/12/06 07:37:22;;;;;;;35.70;19.23;;;;;;;1.69;88.46;100805.63;5047609;28;20237;-69
2021/12/06 07:39:49;;;;;;;33.57;18.67;;;;;;;1.67;88.57;100811.78;5050995;28;20241;-72
2021/12/06 07:42:15;;;;;;;33.23;18.13;;;;;;;1.66;88.35;100810.94;5049460;28;20201;-71
2021/12/06 07:44:44;;;;;;;33.10;18.70;;;;;;;1.64;88.61;100817.97;5050065;28;20209;-70
2021/12/06 07:47:12;;;;;;;34.70;19.17;;;;;;;1.65;88.73;100821.47;5050969;28;20217;-70
2021/12/06 07:49:39;;;;;;;33.23;19.23;;;;;;;1.65;88.53;100824.09;5036149;28;20226;-71
2021/12/06 07:52:06;;;;;;;39.73;20.03;;;;;;;1.63;88.43;100829.38;5043460;28;20584;-72
2021/12/06 07:54:33;;;;;;;36.27;19.97;;;;;;;1.65;88.03;100818.84;5042926;28;20236;-71
2021/12/06 07:57:01;;;;;;;38.80;20.50;;;;;;;1.64;88.72;100817.13;5036742;28;20228;-71
2021/12/06 07:59:28;;;;;;;42.33;20.27;;;;;;;1.63;88.56;100820.63;5041779;28;20237;-71
2021/12/06 08:01:56;;;;;;;42.13;21.37;;;;;;;1.62;88.34;100811.03;5030601;28;20602;-72
2021/12/06 08:04:23;;;;;;;42.47;21.23;;;;;;;1.62;88.24;100813.66;5043576;28;20217;-72
2021/12/06 08:06:49;;;;;;;37.33;19.40;;;;;;;1.61;87.94;100811.97;5034654;28;20582;-71
2021/12/06 08:09:17;;;;;;;42.67;21.80;;;;;;;1.59;87.90;100814.63;5041988;28;20707;-71
2021/12/06 08:11:44;;;;;;;40.10;20.67;;;;;;;1.59;87.89;100822.50;5044081;28;20292;-71
2021/12/06 08:14:11;;;;;;;39.67;20.10;;;;;;;1.59;88.44;100819.88;5036973;28;20667;-71
2021/12/06 08:16:42;;;;;;;40.93;20.20;;;;;;;1.59;88.22;100813.75;5038898;28;20210;-72
2021/12/06 08:19:10;;;;;;;45.37;20.13;;;;;;;1.60;88.39;100812.88;5029601;28;20252;-71
2021/12/06 08:21:37;;;;;;;41.87;21.03;;;;;;;1.60;87.81;100812.88;5041321;28;20225;-71
2021/12/06 08:24:05;;;;;;;41.23;21.50;;;;;;;1.60;88.32;100811.09;5034234;28;20210;-72
2021/12/06 08:26:35;;;;;;;39.00;21.20;;;;;;;1.62;88.02;100817.16;5043311;28;20516;-70
2021/12/06 08:29:05;;;;;;;45.23;22.27;;;;;;;1.62;88.37;100814.53;5031169;28;20253;-69
2021/12/06 08:31:31;;;;;;;43.13;21.53;;;;;;;1.63;88.37;100816.25;5033755;28;20267;-71
2021/12/06 08:33:58;;;;;;;46.13;20.93;;;;;;;1.63;88.35;100811.00;5029703;28;20210;-69
2021/12/06 08:36:26;;;;;;;46.10;23.60;;;;;;;1.62;87.88;100817.16;5033437;28;20690;-71
2021/12/06 08:38:54;;;;;;;41.43;21.73;;;;;;;1.64;88.15;100820.59;5033399;28;20229;-71
2021/12/06 08:41:23;;;;;;;45.63;22.30;;;;;;;1.66;88.24;100823.19;5035374;28;20256;-72
2021/12/06 08:43:53;;;;;;;42.30;21.50;;;;;;;1.65;88.23;100818.84;5037855;28;20217;-71
2021/12/06 08:46:22;;;;;;;45.93;20.80;;;;;;;1.65;88.36;100818.84;5048331;28;20206;-72
2021/12/06 08:48:50;;;;;;;45.47;22.70;;;;;;;1.63;87.92;100816.25;5039144;28;20236;-71
2021/12/06 08:51:22;;;;;;;42.07;21.93;;;;;;;1.62;87.96;100819.78;5034223;28;20580;-71
2021/12/06 08:53:51;;;;;;;44.83;21.27;;;;;;;1.62;88.47;100818.91;5046604;28;20213;-71
2021/12/06 08:56:19;;;;;;;49.23;22.73;;;;;;;1.60;87.92;100818.97;5038610;28;20685;-70
2021/12/06 08:58:46;;;;;;;48.37;22.53;;;;;;;1.60;88.20;100816.34;5033487;28;20226;-72
2021/12/06 09:01:13;;;;;;;49.27;22.73;;;;;;;1.59;88.02;100819.00;5034426;28;20238;-71
2021/12/06 09:03:40;;;;;;;40.93;21.93;;;;;;;1.61;87.84;100818.06;5034943;28;20211;-70
2021/12/06 09:06:10;;;;;;;46.90;23.13;;;;;;;1.61;87.82;100811.97;5033521;28;20210;-71
2021/12/06 09:08:39;;;;;;;49.73;23.17;;;;;;;1.63;88.10;100812.75;5031158;28;20640;-71
2021/12/06 09:11:07;;;;;;;47.63;22.50;;;;;;;1.62;88.72;100809.28;5038842;28;20209;-71
2021/12/06 09:13:34;;;;;;;50.63;22.83;;;;;;;1.61;88.41;100804.94;5032233;28;20213;-71
2021/12/06 09:16:04;;;;;;;48.37;22.53;;;;;;;1.62;88.04;100816.28;5042496;28;20228;-71
2021/12/06 09:18:34;;;;;;;49.33;23.20;;;;;;;1.62;87.93;100813.66;5030555;28;20288;-71
2021/12/06 09:21:02;;;;;;;45.33;22.53;;;;;;;1.62;88.20;100813.66;5031973;28;20230;-71
2021/12/06 09:23:29;;;;;;;43.50;21.43;;;;;;;1.61;88.08;100811.97;5031293;28;20206;-71
2021/12/06 09:25:56;;;;;;;43.30;21.43;;;;;;;1.61;88.07;100818.06;5041194;28;20216;-72
2021/12/06 09:28:25;;;;;;;46.20;21.17;;;;;;;1.62;88.28;100814.53;5039159;28;20237;-72
2021/12/06 09:30:52;;;;;;;47.43;21.47;;;;;;;1.62;88.42;100816.28;5035026;28;20687;-71
2021/12/06 09:33:19;;;;;;;43.27;21.27;;;;;;;1.62;88.28;100811.03;5041901;28;20209;-71
2021/12/06 09:35:49;;;;;;;49.53;21.50;;;;;;;1.63;88.43;100816.25;5038924;28;20214;-71
2021/12/06 09:38:21;;;;;;;41.67;21.27;;;;;;;1.63;88.56;100804.88;5046189;28;20228;-72
2021/12/06 09:40:51;;;;;;;42.53;21.03;;;;;;;1.62;88.16;100808.41;5034357;28;20777;-71
2021/12/06 09:43:18;;;;;;;45.67;20.90;;;;;;;1.62;88.50;100808.41;5046931;28;20237;-72
2021/12/06 09:45:46;;;;;;;41.07;19.77;;;;;;;1.61;88.65;100807.56;5033581;28;20217;-71
2021/12/06 09:48:15;;;;;;;44.87;20.13;;;;;;;1.62;88.67;100808.41;5050909;28;20217;-71
2021/12/06 09:50:45;;;;;;;39.17;19.53;;;;;;;1.62;88.57;100803.16;5054410;28;20220;-73
2021/12/06 09:53:16;;;;;;;36.57;18.93;;;;;;;1.63;88.48;100805.75;5051155;28;20206;-73
2021/12/06 09:55:43;;;;;;;41.97;20.17;;;;;;;1.64;88.70;100804.00;5053042;28;20213;-71
2021/12/06 09:58:10;;;;;;;39.63;18.33;;;;;;;1.65;88.61;100803.09;5038459;28;20218;-72
2021/12/06 10:00:42;;;;;;;38.37;19.70;;;;;;;1.65;88.89;100797.84;5046126;28;20245;-72
2021/12/06 10:03:14;;;;;;;36.37;19.20;;;;;;;1.67;88.73;100806.56;5034409;28;20210;-71
2021/12/06 10:05:41;;;;;;;35.77;17.90;;;;;;;1.69;88.72;100800.38;5045216;28;20210;-72
2021/12/06 10:08:08;;;;;;;37.33;19.13;;;;;;;1.69;88.55;100795.13;5032814;28;20218;-71
2021/12/06 10:10:34;;;;;;;36.53;18.73;;;;;;;1.67;88.39;100786.41;5035293;28;20818;-72
2021/12/06 10:13:01;;;;;;;41.20;19.33;;;;;;;1.69;88.32;100800.38;5034282;28;20214;-72
2021/12/06 10:15:30;;;;;;;38.60;19.33;;;;;;;1.70;88.24;100801.22;5040695;28;20210;-72
2021/12/06 10:18:00;;;;;;;39.70;19.93;;;;;;;1.73;88.74;100806.41;5032554;28;20214;-72
2021/12/06 10:20:30;;;;;;;39.53;19.00;;;;;;;1.75;88.54;100799.34;5040758;28;20256;-71
2021/12/06 10:22:56;;;;;;;38.27;19.83;;;;;;;1.78;88.09;100807.16;5036475;28;20663;-72
2021/12/06 10:25:32;;;;;;;40.90;19.67;;;;;;;1.79;88.29;100805.41;5038951;28;20214;-71
2021/12/06 10:28:03;;;;;;;42.83;20.60;;;;;;;1.80;88.92;100810.59;5041119;28;20219;-71
2021/12/06 10:30:30;;;;;;;35.20;17.57;;;;;;;1.80;88.55;100802.72;5033735;28;20664;-70
2021/12/06 10:33:03;;;;;;;32.90;17.77;;;;;;;1.80;88.03;100800.09;5032141;28;20240;-70
2021/12/06 10:35:31;;;;;;;37.87;19.27;;;;;;;1.79;88.51;100803.66;5039787;28;20283;-72
2021/12/06 10:37:59;;;;;;;36.10;19.23;;;;;;;1.79;87.91;100803.66;5032468;28;20221;-72
2021/12/06 10:40:28;;;;;;;39.70;20.47;;;;;;;1.80;87.86;100805.34;5031450;28;20241;-72
2021/12/06 10:42:57;;;;;;;39.13;19.97;;;;;;;1.83;87.78;100801.78;5048271;28;20319;-71
2021/12/06 10:45:27;;;;;;;37.40;18.57;;;;;;;1.85;88.45;100805.22;5050495;28;20580;-71
2021/12/06 10:48:22;;;;;;;35.67;18.17;;;;;;;1.86;87.76;100802.56;5045490;28;20210;-72
2021/12/06 10:50:58;;;;;;;36.93;18.17;;;;;;;1.85;88.28;100800.84;5008398;28;20202;-71
2021/12/06 10:53:28;;;;;;;36.00;17.93;;;;;;;1.85;87.65;100792.09;5043884;28;20225;-71
2021/12/06 10:55:57;;;;;;;41.03;19.23;;;;;;;1.86;87.88;100791.19;5044032;28;20213;-72
2021/12/06 10:58:27;;;;;;;35.03;17.43;;;;;;;1.85;88.09;100790.34;5033325;28;20316;-72
2021/12/06 11:00:56;;;;;;;42.60;20.47;;;;;;;1.87;87.31;100792.94;5042761;28;20229;-72
2021/12/06 11:03:29;;;;;;;41.50;19.40;;;;;;;1.83;88.00;100784.25;5045953;28;20209;-72
2021/12/06 11:06:01;;;;;;;42.20;19.83;;;;;;;1.82;87.68;100782.53;5031890;28;20210;-71
2021/12/06 11:08:29;;;;;;;37.73;18.57;;;;;;;1.81;87.68;100778.19;5047089;28;20230;-70
2021/12/06 11:10:58;;;;;;;39.57;18.57;;;;;;;1.82;87.49;100777.28;5042389;28;20212;-71
2021/12/06 11:13:27;;;;;;;38.20;19.23;;;;;;;1.81;87.62;100772.06;5031110;28;20225;-72
2021/12/06 11:15:57;;;;;;;44.50;19.70;;;;;;;1.81;87.64;100766.81;5031606;28;20221;-72
2021/12/06 11:18:37;;;;;;;41.47;19.30;;;;;;;1.83;87.29;100762.38;5046015;28;20257;-72
2021/12/06 11:21:14;;;;;;;36.70;16.10;;;;;;;1.83;86.98;100755.38;5038936;28;20229;-71
2021/12/06 11:24:10;;;;;;;37.07;18.30;;;;;;;1.83;87.63;100752.75;5035390;28;20206;-72
2021/12/06 11:26:40;;;;;;;34.37;16.63;;;;;;;1.85;87.32;100756.19;5049548;28;20671;-72
2021/12/06 11:29:10;;;;;;;38.43;18.33;;;;;;;1.86;87.22;100749.19;5033417;28;20249;-71